首页
METAR-TAF:

METAR-TAF

机场 :

Goldsboro / Seymour Johnson, 北卡罗来纳州, 美国

纬度: 35-20N, 经度: 077-58W, 海拔: 33米

当前天气观测

该预报发布于15分钟前的13:56 UTC
风速8节,风向西南
温度 14°C
湿度 82%
气压 1015 hPa
能見度: 16.1公里
散云层高于11000英尺

METAR: KGSB 201356Z AUTO 23008KT 10SM SCT110 14/11 A2998 RMK AO2 SLP155 T01350112 $

时间: 09:11 (14:11 UTC)

预报

该预报发布于1小时和11分钟前的13:00 UTC
预报有效从20日的 13点(UTC)到 21日的 19点(UTC)
风速6节,风向西转西南
能见度10公里或以上
少量云层高于3500英尺
多云层高于11000英尺
多云层高于25000英尺
成为
从 20日的 16点(UTC)到 20日的 17点(UTC)
风速12节,风向西转西北
能见度10公里或以上
多云层高于3500英尺
成为
从 20日的 23点(UTC)到 20日的 24点(UTC)
风速6节,风向北转西北
能见度10公里或以上
天空无云

TAF: KGSB 201300Z 2013/2119 24006KT 9999 FEW035 BKN110 BKN250 QNH2996INS BECMG 2016/2017 30012KT 9999 BKN035 QNH2998INS BECMG 2023/2024 33006KT 9999 SKC QNH3008INS TX16/2019Z TN02/2110Z

超过4000个机场的气象观测和天气预报(METAR&TAF报告)。

可查询的气象台以黄色和红色小点在地图上表示。

将鼠标移到小点上方,可查看气象台名称。

然后点击查看天气观测和预报。

如需切换地图:点击带黑十字的绿色按钮放大地图;点击带横线的绿色按钮缩小地图;或者点击绿色箭头查看邻近地区的地图。


METAR-TAF: